sensor_id;sensor_type;location;lat;lon;timestamp;temperature;humidity
20200;DHT22;36284;37.236;-121.934;2022-09-03T00:05:02;31.60;96.90
20200;DHT22;36284;37.236;-121.934;2022-09-03T00:07:50;31.60;96.80
20200;DHT22;36284;37.236;-121.934;2022-09-03T00:13:15;31.30;97.40
20200;DHT22;36284;37.236;-121.934;2022-09-03T00:15:43;31.70;97.20
20200;DHT22;36284;37.236;-121.934;2022-09-03T00:18:22;31.40;96.70
20200;DHT22;36284;37.236;-121.934;2022-09-03T00:20:55;31.10;97.00
20200;DHT22;36284;37.236;-121.934;2022-09-03T00:23:30;31.10;97.40
20200;DHT22;36284;37.236;-121.934;2022-09-03T00:28:56;31.20;97.30
20200;DHT22;36284;37.236;-121.934;2022-09-03T00:31:35;30.90;97.60
20200;DHT22;36284;37.236;-121.934;2022-09-03T00:36:52;30.90;98.20
20200;DHT22;36284;37.236;-121.934;2022-09-03T00:39:22;30.60;98.20
20200;DHT22;36284;37.236;-121.934;2022-09-03T00:47:50;30.50;97.70
20200;DHT22;36284;37.236;-121.934;2022-09-03T00:50:32;30.30;98.10
20200;DHT22;36284;37.236;-121.934;2022-09-03T00:53:30;30.00;98.50
20200;DHT22;36284;37.236;-121.934;2022-09-03T00:58:51;29.70;99.30
20200;DHT22;36284;37.236;-121.934;2022-09-03T01:01:35;29.80;99.60
20200;DHT22;36284;37.236;-121.934;2022-09-03T01:04:26;30.00;99.60
20200;DHT22;36284;37.236;-121.934;2022-09-03T01:07:06;29.80;99.90
20200;DHT22;36284;37.236;-121.934;2022-09-03T01:09:55;29.70;99.90
20200;DHT22;36284;37.236;-121.934;2022-09-03T01:12:46;29.50;99.90
20200;DHT22;36284;37.236;-121.934;2022-09-03T01:15:33;29.20;99.90
20200;DHT22;36284;37.236;-121.934;2022-09-03T01:18:21;29.00;99.90
20200;DHT22;36284;37.236;-121.934;2022-09-03T01:23:56;28.40;99.90
20200;DHT22;36284;37.236;-121.934;2022-09-03T01:27:00;28.30;99.90
20200;DHT22;36284;37.236;-121.934;2022-09-03T01:32:46;28.00;99.90
20200;DHT22;36284;37.236;-121.934;2022-09-03T01:35:29;27.70;99.90
20200;DHT22;36284;37.236;-121.934;2022-09-03T01:47:31;27.40;99.90
20200;DHT22;36284;37.236;-121.934;2022-09-03T01:50:10;27.30;99.90
20200;DHT22;36284;37.236;-121.934;2022-09-03T01:53:30;27.40;99.90
20200;DHT22;36284;37.236;-121.934;2022-09-03T01:55:48;27.10;99.90
20200;DHT22;36284;37.236;-121.934;2022-09-03T01:58:28;27.00;99.90
20200;DHT22;36284;37.236;-121.934;2022-09-03T02:01:04;26.90;99.90
20200;DHT22;36284;37.236;-121.934;2022-09-03T02:03:37;26.60;99.90
20200;DHT22;36284;37.236;-121.934;2022-09-03T02:06:04;26.60;99.90
20200;DHT22;36284;37.236;-121.934;2022-09-03T02:08:33;26.60;99.90
20200;DHT22;36284;37.236;-121.934;2022-09-03T02:11:00;26.50;99.90
20200;DHT22;36284;37.236;-121.934;2022-09-03T02:13:51;26.40;99.90
20200;DHT22;36284;37.236;-121.934;2022-09-03T02:16:24;26.10;99.90
20200;DHT22;36284;37.236;-121.934;2022-09-03T02:18:56;25.80;99.90
20200;DHT22;36284;37.236;-121.934;2022-09-03T02:21:27;25.50;99.90
20200;DHT22;36284;37.236;-121.934;2022-09-03T02:23:56;25.00;99.90
20200;DHT22;36284;37.236;-121.934;2022-09-03T02:26:24;24.90;99.90
20200;DHT22;36284;37.236;-121.934;2022-09-03T02:28:52;24.80;99.90
20200;DHT22;36284;37.236;-121.934;2022-09-03T02:31:20;24.60;99.90
20200;DHT22;36284;37.236;-121.934;2022-09-03T02:33:48;24.50;99.90
20200;DHT22;36284;37.236;-121.934;2022-09-03T02:36:24;24.50;99.90
20200;DHT22;36284;37.236;-121.934;2022-09-03T02:38:51;24.30;99.90
20200;DHT22;36284;37.236;-121.934;2022-09-03T02:41:18;24.30;99.90
20200;DHT22;36284;37.236;-121.934;2022-09-03T02:46:46;24.20;99.90
20200;DHT22;36284;37.236;-121.934;2022-09-03T02:49:14;24.20;99.90
20200;DHT22;36284;37.236;-121.934;2022-09-03T02:51:42;24.10;99.90
20200;DHT22;36284;37.236;-121.934;2022-09-03T02:54:10;24.00;99.90
20200;DHT22;36284;37.236;-121.934;2022-09-03T02:56:37;23.90;99.90
20200;DHT22;36284;37.236;-121.934;2022-09-03T02:59:06;23.90;99.90
20200;DHT22;36284;37.236;-121.934;2022-09-03T03:01:33;23.70;99.90
20200;DHT22;36284;37.236;-121.934;2022-09-03T03:04:00;23.70;99.90
20200;DHT22;36284;37.236;-121.934;2022-09-03T03:06:27;23.60;99.90
20200;DHT22;36284;37.236;-121.934;2022-09-03T03:08:54;23.60;99.90
20200;DHT22;36284;37.236;-121.934;2022-09-03T03:11:23;23.50;99.90
20200;DHT22;36284;37.236;-121.934;2022-09-03T03:13:52;23.40;99.90
20200;DHT22;36284;37.236;-121.934;2022-09-03T03:16:19;23.30;99.90
20200;DHT22;36284;37.236;-121.934;2022-09-03T03:18:46;23.20;99.90
20200;DHT22;36284;37.236;-121.934;2022-09-03T03:21:17;23.10;99.90
20200;DHT22;36284;37.236;-121.934;2022-09-03T03:23:44;23.00;99.90
20200;DHT22;36284;37.236;-121.934;2022-09-03T03:26:14;22.90;99.90
20200;DHT22;36284;37.236;-121.934;2022-09-03T03:28:44;22.90;99.90
20200;DHT22;36284;37.236;-121.934;2022-09-03T03:31:14;22.80;99.90
20200;DHT22;36284;37.236;-121.934;2022-09-03T03:33:42;22.70;99.90
20200;DHT22;36284;37.236;-121.934;2022-09-03T03:36:14;22.70;99.90
20200;DHT22;36284;37.236;-121.934;2022-09-03T03:38:43;22.60;99.90
20200;DHT22;36284;37.236;-121.934;2022-09-03T03:41:17;22.40;99.90
20200;DHT22;36284;37.236;-121.934;2022-09-03T03:43:44;22.20;99.90
20200;DHT22;36284;37.236;-121.934;2022-09-03T03:46:11;22.10;99.90
20200;DHT22;36284;37.236;-121.934;2022-09-03T03:48:40;22.00;99.90
20200;DHT22;36284;37.236;-121.934;2022-09-03T03:51:08;21.90;99.90
20200;DHT22;36284;37.236;-121.934;2022-09-03T03:53:37;21.90;99.90
20200;DHT22;36284;37.236;-121.934;2022-09-03T03:56:07;21.90;99.90
20200;DHT22;36284;37.236;-121.934;2022-09-03T03:58:35;21.80;99.90
20200;DHT22;36284;37.236;-121.934;2022-09-03T04:01:07;21.60;99.90
20200;DHT22;36284;37.236;-121.934;2022-09-03T04:03:35;21.70;99.90
20200;DHT22;36284;37.236;-121.934;2022-09-03T04:06:03;21.60;99.90
20200;DHT22;36284;37.236;-121.934;2022-09-03T04:08:34;21.50;99.90
20200;DHT22;36284;37.236;-121.934;2022-09-03T04:11:03;21.50;99.90
20200;DHT22;36284;37.236;-121.934;2022-09-03T04:13:31;21.40;99.90
20200;DHT22;36284;37.236;-121.934;2022-09-03T04:16:02;21.40;99.90
20200;DHT22;36284;37.236;-121.934;2022-09-03T04:18:30;21.10;99.90
20200;DHT22;36284;37.236;-121.934;2022-09-03T04:21:02;21.10;99.90
20200;DHT22;36284;37.236;-121.934;2022-09-03T04:23:31;20.90;99.90
20200;DHT22;36284;37.236;-121.934;2022-09-03T04:25:58;20.80;99.90
20200;DHT22;36284;37.236;-121.934;2022-09-03T04:28:25;20.70;99.90
20200;DHT22;36284;37.236;-121.934;2022-09-03T04:30:52;20.60;99.90
20200;DHT22;36284;37.236;-121.934;2022-09-03T04:33:19;20.60;99.90
20200;DHT22;36284;37.236;-121.934;2022-09-03T04:35:47;20.50;99.90
20200;DHT22;36284;37.236;-121.934;2022-09-03T04:38:14;20.50;99.90
20200;DHT22;36284;37.236;-121.934;2022-09-03T04:40:41;20.50;99.90
20200;DHT22;36284;37.236;-121.934;2022-09-03T04:43:08;20.30;99.90
20200;DHT22;36284;37.236;-121.934;2022-09-03T04:45:35;20.20;99.90
20200;DHT22;36284;37.236;-121.934;2022-09-03T04:48:02;20.20;99.90
20200;DHT22;36284;37.236;-121.934;2022-09-03T04:50:32;20.10;99.90
20200;DHT22;36284;37.236;-121.934;2022-09-03T04:53:02;20.20;99.90
20200;DHT22;36284;37.236;-121.934;2022-09-03T04:55:37;20.10;99.90
20200;DHT22;36284;37.236;-121.934;2022-09-03T04:58:04;20.00;99.90
20200;DHT22;36284;37.236;-121.934;2022-09-03T05:00:34;19.90;99.90
20200;DHT22;36284;37.236;-121.934;2022-09-03T05:03:01;19.90;99.90
20200;DHT22;36284;37.236;-121.934;2022-09-03T05:05:30;19.90;99.90
20200;DHT22;36284;37.236;-121.934;2022-09-03T05:07:59;19.90;99.90
20200;DHT22;36284;37.236;-121.934;2022-09-03T05:10:30;19.80;99.90
20200;DHT22;36284;37.236;-121.934;2022-09-03T05:13:01;19.90;99.90
20200;DHT22;36284;37.236;-121.934;2022-09-03T05:15:30;20.00;99.90
20200;DHT22;36284;37.236;-121.934;2022-09-03T05:18:00;20.00;99.90
20200;DHT22;36284;37.236;-121.934;2022-09-03T05:20:29;20.00;99.90
20200;DHT22;36284;37.236;-121.934;2022-09-03T05:22:59;20.00;99.90
20200;DHT22;36284;37.236;-121.934;2022-09-03T05:25:26;19.90;99.90
20200;DHT22;36284;37.236;-121.934;2022-09-03T05:27:53;20.00;99.90
20200;DHT22;36284;37.236;-121.934;2022-09-03T05:30:20;19.90;99.90
20200;DHT22;36284;37.236;-121.934;2022-09-03T05:32:48;19.90;99.90
20200;DHT22;36284;37.236;-121.934;2022-09-03T05:35:15;19.80;99.90
20200;DHT22;36284;37.236;-121.934;2022-09-03T05:37:42;19.70;99.90
20200;DHT22;36284;37.236;-121.934;2022-09-03T05:40:09;19.80;99.90
20200;DHT22;36284;37.236;-121.934;2022-09-03T05:42:39;19.70;99.90
20200;DHT22;36284;37.236;-121.934;2022-09-03T05:45:08;19.50;99.90
20200;DHT22;36284;37.236;-121.934;2022-09-03T05:47:39;19.50;99.90
20200;DHT22;36284;37.236;-121.934;2022-09-03T05:50:07;19.50;99.90
20200;DHT22;36284;37.236;-121.934;2022-09-03T05:52:36;19.50;99.90
20200;DHT22;36284;37.236;-121.934;2022-09-03T05:55:03;19.40;99.90
20200;DHT22;36284;37.236;-121.934;2022-09-03T05:57:30;19.40;99.90
20200;DHT22;36284;37.236;-121.934;2022-09-03T05:59:57;19.30;99.90
20200;DHT22;36284;37.236;-121.934;2022-09-03T06:02:25;19.30;99.90
20200;DHT22;36284;37.236;-121.934;2022-09-03T06:04:52;19.20;99.90
20200;DHT22;36284;37.236;-121.934;2022-09-03T06:07:19;19.10;99.90
20200;DHT22;36284;37.236;-121.934;2022-09-03T06:09:46;19.10;99.90
20200;DHT22;36284;37.236;-121.934;2022-09-03T06:12:13;19.00;99.90
20200;DHT22;36284;37.236;-121.934;2022-09-03T06:14:40;18.90;99.90
20200;DHT22;36284;37.236;-121.934;2022-09-03T06:17:07;18.80;99.90
20200;DHT22;36284;37.236;-121.934;2022-09-03T06:19:36;18.90;99.90
20200;DHT22;36284;37.236;-121.934;2022-09-03T06:22:03;18.80;99.90
20200;DHT22;36284;37.236;-121.934;2022-09-03T06:24:30;18.70;99.90
20200;DHT22;36284;37.236;-121.934;2022-09-03T06:26:57;18.80;99.90
20200;DHT22;36284;37.236;-121.934;2022-09-03T06:29:24;18.80;99.90
20200;DHT22;36284;37.236;-121.934;2022-09-03T06:31:51;18.70;99.90
20200;DHT22;36284;37.236;-121.934;2022-09-03T06:34:18;18.50;99.90
20200;DHT22;36284;37.236;-121.934;2022-09-03T06:36:47;18.40;99.90
20200;DHT22;36284;37.236;-121.934;2022-09-03T06:39:14;18.20;99.90
20200;DHT22;36284;37.236;-121.934;2022-09-03T06:41:41;18.10;99.90
20200;DHT22;36284;37.236;-121.934;2022-09-03T06:44:09;18.10;99.90
20200;DHT22;36284;37.236;-121.934;2022-09-03T06:46:40;18.00;99.90
20200;DHT22;36284;37.236;-121.934;2022-09-03T06:49:10;18.00;99.90
20200;DHT22;36284;37.236;-121.934;2022-09-03T06:51:37;17.90;99.90
20200;DHT22;36284;37.236;-121.934;2022-09-03T06:54:07;17.80;99.90
20200;DHT22;36284;37.236;-121.934;2022-09-03T06:56:35;17.80;99.90
20200;DHT22;36284;37.236;-121.934;2022-09-03T06:59:05;17.60;99.90
20200;DHT22;36284;37.236;-121.934;2022-09-03T07:01:33;17.60;99.90
20200;DHT22;36284;37.236;-121.934;2022-09-03T07:04:05;17.60;99.90
20200;DHT22;36284;37.236;-121.934;2022-09-03T07:06:37;17.50;99.90
20200;DHT22;36284;37.236;-121.934;2022-09-03T07:09:08;17.50;99.90
20200;DHT22;36284;37.236;-121.934;2022-09-03T07:11:36;17.40;99.90
20200;DHT22;36284;37.236;-121.934;2022-09-03T07:14:10;17.50;99.90
20200;DHT22;36284;37.236;-121.934;2022-09-03T07:16:38;17.40;99.90
20200;DHT22;36284;37.236;-121.934;2022-09-03T07:19:07;17.40;99.90
20200;DHT22;36284;37.236;-121.934;2022-09-03T07:21:35;17.30;99.90
20200;DHT22;36284;37.236;-121.934;2022-09-03T07:24:04;17.30;99.90
20200;DHT22;36284;37.236;-121.934;2022-09-03T07:26:33;17.30;99.90
20200;DHT22;36284;37.236;-121.934;2022-09-03T07:29:01;17.20;99.90
20200;DHT22;36284;37.236;-121.934;2022-09-03T07:31:30;17.20;99.90
20200;DHT22;36284;37.236;-121.934;2022-09-03T07:34:05;17.20;99.90
20200;DHT22;36284;37.236;-121.934;2022-09-03T07:36:38;17.10;99.90
20200;DHT22;36284;37.236;-121.934;2022-09-03T07:39:09;17.00;99.90
20200;DHT22;36284;37.236;-121.934;2022-09-03T07:41:37;17.10;99.90
20200;DHT22;36284;37.236;-121.934;2022-09-03T07:44:08;17.10;99.90
20200;DHT22;36284;37.236;-121.934;2022-09-03T07:46:36;17.10;99.90
20200;DHT22;36284;37.236;-121.934;2022-09-03T07:49:04;17.10;99.90
20200;DHT22;36284;37.236;-121.934;2022-09-03T07:51:34;17.00;99.90
20200;DHT22;36284;37.236;-121.934;2022-09-03T07:54:03;16.90;99.90
20200;DHT22;36284;37.236;-121.934;2022-09-03T07:56:33;16.90;99.90
20200;DHT22;36284;37.236;-121.934;2022-09-03T07:59:03;16.90;99.90
20200;DHT22;36284;37.236;-121.934;2022-09-03T08:01:32;16.80;99.90
20200;DHT22;36284;37.236;-121.934;2022-09-03T08:04:00;16.80;99.90
20200;DHT22;36284;37.236;-121.934;2022-09-03T08:06:29;16.80;99.90
20200;DHT22;36284;37.236;-121.934;2022-09-03T08:09:02;16.80;99.90
20200;DHT22;36284;37.236;-121.934;2022-09-03T08:11:30;16.80;99.90
20200;DHT22;36284;37.236;-121.934;2022-09-03T08:14:02;16.80;99.90
20200;DHT22;36284;37.236;-121.934;2022-09-03T08:16:34;16.70;99.90
20200;DHT22;36284;37.236;-121.934;2022-09-03T08:19:01;16.70;99.90
20200;DHT22;36284;37.236;-121.934;2022-09-03T08:21:28;16.60;99.90
20200;DHT22;36284;37.236;-121.934;2022-09-03T08:23:56;16.60;99.90
20200;DHT22;36284;37.236;-121.934;2022-09-03T08:26:35;16.60;99.90
20200;DHT22;36284;37.236;-121.934;2022-09-03T08:29:04;16.60;99.90
20200;DHT22;36284;37.236;-121.934;2022-09-03T08:31:32;16.60;99.90
20200;DHT22;36284;37.236;-121.934;2022-09-03T08:34:01;16.60;99.90
20200;DHT22;36284;37.236;-121.934;2022-09-03T08:36:34;16.60;99.90
20200;DHT22;36284;37.236;-121.934;2022-09-03T08:39:07;16.50;99.90
20200;DHT22;36284;37.236;-121.934;2022-09-03T08:49:46;16.40;99.90
20200;DHT22;36284;37.236;-121.934;2022-09-03T08:52:24;16.40;99.90
20200;DHT22;36284;37.236;-121.934;2022-09-03T08:55:41;16.30;99.90
20200;DHT22;36284;37.236;-121.934;2022-09-03T08:58:27;16.30;99.90
20200;DHT22;36284;37.236;-121.934;2022-09-03T09:01:03;16.30;99.90
20200;DHT22;36284;37.236;-121.934;2022-09-03T09:03:42;16.40;99.90
20200;DHT22;36284;37.236;-121.934;2022-09-03T09:09:13;16.30;99.90
20200;DHT22;36284;37.236;-121.934;2022-09-03T09:17:54;16.30;99.90
20200;DHT22;36284;37.236;-121.934;2022-09-03T09:23:17;16.20;99.90
20200;DHT22;36284;37.236;-121.934;2022-09-03T09:25:49;16.10;99.90
20200;DHT22;36284;37.236;-121.934;2022-09-03T09:28:22;16.00;99.90
20200;DHT22;36284;37.236;-121.934;2022-09-03T09:30:53;16.00;99.90
20200;DHT22;36284;37.236;-121.934;2022-09-03T09:33:21;16.10;99.90
20200;DHT22;36284;37.236;-121.934;2022-09-03T09:35:49;16.00;99.90
20200;DHT22;36284;37.236;-121.934;2022-09-03T09:38:30;15.90;99.90
20200;DHT22;36284;37.236;-121.934;2022-09-03T09:41:08;15.90;99.90
20200;DHT22;36284;37.236;-121.934;2022-09-03T09:43:36;15.90;99.90
20200;DHT22;36284;37.236;-121.934;2022-09-03T09:46:18;15.90;99.90
20200;DHT22;36284;37.236;-121.934;2022-09-03T09:48:56;16.00;99.90
20200;DHT22;36284;37.236;-121.934;2022-09-03T09:51:28;16.00;99.90
20200;DHT22;36284;37.236;-121.934;2022-09-03T09:54:15;16.00;99.90
20200;DHT22;36284;37.236;-121.934;2022-09-03T09:56:45;16.00;99.90
20200;DHT22;36284;37.236;-121.934;2022-09-03T09:59:13;15.90;99.90
20200;DHT22;36284;37.236;-121.934;2022-09-03T10:01:42;15.80;99.90
20200;DHT22;36284;37.236;-121.934;2022-09-03T10:06:40;15.80;99.90
20200;DHT22;36284;37.236;-121.934;2022-09-03T10:09:27;15.90;99.90
20200;DHT22;36284;37.236;-121.934;2022-09-03T10:15:07;15.80;99.90
20200;DHT22;36284;37.236;-121.934;2022-09-03T10:23:26;15.90;99.90
20200;DHT22;36284;37.236;-121.934;2022-09-03T10:26:08;16.00;99.90
20200;DHT22;36284;37.236;-121.934;2022-09-03T10:28:38;15.90;99.90
20200;DHT22;36284;37.236;-121.934;2022-09-03T10:33:59;15.80;99.90
20200;DHT22;36284;37.236;-121.934;2022-09-03T10:37:02;15.70;99.90
20200;DHT22;36284;37.236;-121.934;2022-09-03T10:42:31;15.70;99.90
20200;DHT22;36284;37.236;-121.934;2022-09-03T10:45:07;15.70;99.90
20200;DHT22;36284;37.236;-121.934;2022-09-03T10:51:11;15.80;99.90
20200;DHT22;36284;37.236;-121.934;2022-09-03T10:56:51;15.60;99.90
20200;DHT22;36284;37.236;-121.934;2022-09-03T10:59:41;15.50;99.90
20200;DHT22;36284;37.236;-121.934;2022-09-03T11:02:46;15.60;99.90
20200;DHT22;36284;37.236;-121.934;2022-09-03T11:14:11;15.60;99.90
20200;DHT22;36284;37.236;-121.934;2022-09-03T11:16:46;15.70;99.90
20200;DHT22;36284;37.236;-121.934;2022-09-03T11:19:17;15.80;99.90
20200;DHT22;36284;37.236;-121.934;2022-09-03T11:21:44;15.70;99.90
20200;DHT22;36284;37.236;-121.934;2022-09-03T11:24:23;15.70;99.90
20200;DHT22;36284;37.236;-121.934;2022-09-03T11:27:31;15.80;99.90
20200;DHT22;36284;37.236;-121.934;2022-09-03T11:30:05;15.80;99.90
20200;DHT22;36284;37.236;-121.934;2022-09-03T11:32:46;15.80;99.90
20200;DHT22;36284;37.236;-121.934;2022-09-03T11:38:00;15.70;99.90
20200;DHT22;36284;37.236;-121.934;2022-09-03T11:40:35;15.80;99.90
20200;DHT22;36284;37.236;-121.934;2022-09-03T11:48:49;15.70;99.90
20200;DHT22;36284;37.236;-121.934;2022-09-03T11:53:54;15.50;99.90
20200;DHT22;36284;37.236;-121.934;2022-09-03T11:56:22;15.50;99.90
20200;DHT22;36284;37.236;-121.934;2022-09-03T12:01:36;15.50;99.90
20200;DHT22;36284;37.236;-121.934;2022-09-03T12:04:07;15.40;99.90
20200;DHT22;36284;37.236;-121.934;2022-09-03T12:06:42;15.30;99.90
20200;DHT22;36284;37.236;-121.934;2022-09-03T12:15:05;15.30;99.90
20200;DHT22;36284;37.236;-121.934;2022-09-03T12:20:35;15.40;99.90
20200;DHT22;36284;37.236;-121.934;2022-09-03T12:23:03;15.40;99.90
20200;DHT22;36284;37.236;-121.934;2022-09-03T12:25:30;15.30;99.90
20200;DHT22;36284;37.236;-121.934;2022-09-03T12:28:00;15.20;99.90
20200;DHT22;36284;37.236;-121.934;2022-09-03T12:30:30;15.10;99.90
20200;DHT22;36284;37.236;-121.934;2022-09-03T12:33:07;15.20;99.90
20200;DHT22;36284;37.236;-121.934;2022-09-03T12:35:36;15.20;99.90
20200;DHT22;36284;37.236;-121.934;2022-09-03T12:38:03;15.30;99.90
20200;DHT22;36284;37.236;-121.934;2022-09-03T12:40:30;15.20;99.90
20200;DHT22;36284;37.236;-121.934;2022-09-03T12:43:12;15.20;99.90
20200;DHT22;36284;37.236;-121.934;2022-09-03T12:45:57;15.10;99.90
20200;DHT22;36284;37.236;-121.934;2022-09-03T12:48:24;15.10;99.90
20200;DHT22;36284;37.236;-121.934;2022-09-03T12:51:01;15.00;99.90
20200;DHT22;36284;37.236;-121.934;2022-09-03T12:53:30;15.00;99.90
20200;DHT22;36284;37.236;-121.934;2022-09-03T12:56:00;15.00;99.90
20200;DHT22;36284;37.236;-121.934;2022-09-03T12:58:58;15.00;99.90
20200;DHT22;36284;37.236;-121.934;2022-09-03T13:01:33;15.10;99.90
20200;DHT22;36284;37.236;-121.934;2022-09-03T13:04:16;15.20;99.90
20200;DHT22;36284;37.236;-121.934;2022-09-03T13:06:55;15.20;99.90
20200;DHT22;36284;37.236;-121.934;2022-09-03T13:09:27;15.10;99.90
20200;DHT22;36284;37.236;-121.934;2022-09-03T13:11:58;15.20;99.90
20200;DHT22;36284;37.236;-121.934;2022-09-03T13:14:26;15.20;99.90
20200;DHT22;36284;37.236;-121.934;2022-09-03T13:17:06;15.20;99.90
20200;DHT22;36284;37.236;-121.934;2022-09-03T13:22:36;15.10;99.90
20200;DHT22;36284;37.236;-121.934;2022-09-03T13:25:32;15.10;99.90
20200;DHT22;36284;37.236;-121.934;2022-09-03T13:31:09;15.10;99.90
20200;DHT22;36284;37.236;-121.934;2022-09-03T13:33:42;15.10;99.90
20200;DHT22;36284;37.236;-121.934;2022-09-03T13:36:17;15.10;99.90
20200;DHT22;36284;37.236;-121.934;2022-09-03T13:38:57;15.00;99.90
20200;DHT22;36284;37.236;-121.934;2022-09-03T13:47:00;15.10;99.90
20200;DHT22;36284;37.236;-121.934;2022-09-03T13:50:07;15.10;99.90
20200;DHT22;36284;37.236;-121.934;2022-09-03T13:58:52;15.30;99.90
20200;DHT22;36284;37.236;-121.934;2022-09-03T14:01:35;15.40;99.90
20200;DHT22;36284;37.236;-121.934;2022-09-03T14:04:16;15.50;99.90
20200;DHT22;36284;37.236;-121.934;2022-09-03T14:07:10;16.00;99.90
20200;DHT22;36284;37.236;-121.934;2022-09-03T14:10:38;16.10;99.90
20200;DHT22;36284;37.236;-121.934;2022-09-03T14:12:42;16.10;99.90
20200;DHT22;36284;37.236;-121.934;2022-09-03T14:15:29;16.10;99.90
20200;DHT22;36284;37.236;-121.934;2022-09-03T14:26:04;17.20;99.90
20200;DHT22;36284;37.236;-121.934;2022-09-03T14:28:40;17.10;99.90
20200;DHT22;36284;37.236;-121.934;2022-09-03T14:37:24;17.20;99.90
20200;DHT22;36284;37.236;-121.934;2022-09-03T14:42:46;17.70;99.90
20200;DHT22;36284;37.236;-121.934;2022-09-03T14:48:27;18.20;99.90
20200;DHT22;36284;37.236;-121.934;2022-09-03T14:51:07;18.30;99.90
20200;DHT22;36284;37.236;-121.934;2022-09-03T15:00:01;19.80;99.90
20200;DHT22;36284;37.236;-121.934;2022-09-03T15:02:58;20.50;99.90
20200;DHT22;36284;37.236;-121.934;2022-09-03T15:06:01;20.90;99.90
20200;DHT22;36284;37.236;-121.934;2022-09-03T15:08:43;21.30;99.90
20200;DHT22;36284;37.236;-121.934;2022-09-03T15:11:21;21.10;99.90
20200;DHT22;36284;37.236;-121.934;2022-09-03T15:14:45;21.90;99.90
20200;DHT22;36284;37.236;-121.934;2022-09-03T15:24:57;22.80;99.90
20200;DHT22;36284;37.236;-121.934;2022-09-03T15:30:11;22.80;99.90
20200;DHT22;36284;37.236;-121.934;2022-09-03T15:35:59;23.60;99.90
20200;DHT22;36284;37.236;-121.934;2022-09-03T15:41:27;24.30;99.90
20200;DHT22;36284;37.236;-121.934;2022-09-03T15:43:59;24.60;99.90
20200;DHT22;36284;37.236;-121.934;2022-09-03T15:46:38;24.70;99.90
20200;DHT22;36284;37.236;-121.934;2022-09-03T15:57:20;25.60;99.90
20200;DHT22;36284;37.236;-121.934;2022-09-03T16:00:05;26.10;99.90
20200;DHT22;36284;37.236;-121.934;2022-09-03T16:05:45;26.60;99.90
20200;DHT22;36284;37.236;-121.934;2022-09-03T16:11:15;26.70;99.90
20200;DHT22;36284;37.236;-121.934;2022-09-03T16:17:12;27.50;99.90
20200;DHT22;36284;37.236;-121.934;2022-09-03T16:19:46;27.50;99.90
20200;DHT22;36284;37.236;-121.934;2022-09-03T16:22:50;27.10;99.90
20200;DHT22;36284;37.236;-121.934;2022-09-03T16:25:29;27.90;99.90
20200;DHT22;36284;37.236;-121.934;2022-09-03T16:28:09;28.70;99.90
20200;DHT22;36284;37.236;-121.934;2022-09-03T16:42:41;29.20;99.90
20200;DHT22;36284;37.236;-121.934;2022-09-03T16:45:23;28.90;99.90
20200;DHT22;36284;37.236;-121.934;2022-09-03T16:59:01;29.90;99.90
20200;DHT22;36284;37.236;-121.934;2022-09-03T17:01:49;28.90;99.90
20200;DHT22;36284;37.236;-121.934;2022-09-03T17:13:16;30.00;99.90
20200;DHT22;36284;37.236;-121.934;2022-09-03T17:24:43;30.90;99.90
20200;DHT22;36284;37.236;-121.934;2022-09-03T17:30:07;31.30;99.90
20200;DHT22;36284;37.236;-121.934;2022-09-03T17:36:17;31.20;99.90
20200;DHT22;36284;37.236;-121.934;2022-09-03T17:52:40;32.50;99.90
20200;DHT22;36284;37.236;-121.934;2022-09-03T17:55:30;32.80;99.90
20200;DHT22;36284;37.236;-121.934;2022-09-03T18:01:01;33.30;99.90
20200;DHT22;36284;37.236;-121.934;2022-09-03T18:03:56;32.60;99.90
20200;DHT22;36284;37.236;-121.934;2022-09-03T18:06:35;32.60;99.90
20200;DHT22;36284;37.236;-121.934;2022-09-03T18:15:10;33.50;99.90
20200;DHT22;36284;37.236;-121.934;2022-09-03T18:18:27;33.90;99.90
20200;DHT22;36284;37.236;-121.934;2022-09-03T18:20:57;33.60;98.30
20200;DHT22;36284;37.236;-121.934;2022-09-03T18:27:11;34.30;98.30
20200;DHT22;36284;37.236;-121.934;2022-09-03T18:30:06;35.20;97.60
20200;DHT22;36284;37.236;-121.934;2022-09-03T18:32:52;34.70;97.00
20200;DHT22;36284;37.236;-121.934;2022-09-03T18:35:38;34.80;96.10
20200;DHT22;36284;37.236;-121.934;2022-09-03T18:38:26;35.30;95.50
20200;DHT22;36284;37.236;-121.934;2022-09-03T18:41:45;35.40;94.20
20200;DHT22;36284;37.236;-121.934;2022-09-03T18:51:20;35.70;93.60
20200;DHT22;36284;37.236;-121.934;2022-09-03T18:57:51;35.10;93.80
20200;DHT22;36284;37.236;-121.934;2022-09-03T19:01:25;34.80;92.70
20200;DHT22;36284;37.236;-121.934;2022-09-03T19:07:41;35.40;92.50
20200;DHT22;36284;37.236;-121.934;2022-09-03T19:13:35;35.20;91.30
20200;DHT22;36284;37.236;-121.934;2022-09-03T19:22:41;35.60;89.50
20200;DHT22;36284;37.236;-121.934;2022-09-03T19:25:28;35.40;89.60
20200;DHT22;36284;37.236;-121.934;2022-09-03T19:28:20;34.70;90.70
20200;DHT22;36284;37.236;-121.934;2022-09-03T19:37:30;35.30;90.40
20200;DHT22;36284;37.236;-121.934;2022-09-03T19:41:07;35.80;89.50
20200;DHT22;36284;37.236;-121.934;2022-09-03T19:46:57;36.20;87.50
20200;DHT22;36284;37.236;-121.934;2022-09-03T19:56:02;36.30;84.20
20200;DHT22;36284;37.236;-121.934;2022-09-03T19:58:55;36.70;85.10
20200;DHT22;36284;37.236;-121.934;2022-09-03T20:01:41;36.40;82.10
20200;DHT22;36284;37.236;-121.934;2022-09-03T20:04:45;35.20;83.60
20200;DHT22;36284;37.236;-121.934;2022-09-03T20:07:32;35.10;83.50
20200;DHT22;36284;37.236;-121.934;2022-09-03T20:10:18;36.30;83.80
20200;DHT22;36284;37.236;-121.934;2022-09-03T20:13:00;35.20;83.00
20200;DHT22;36284;37.236;-121.934;2022-09-03T20:16:05;36.20;82.70
20200;DHT22;36284;37.236;-121.934;2022-09-03T20:30:10;36.70;80.00
20200;DHT22;36284;37.236;-121.934;2022-09-03T20:38:46;36.10;80.60
20200;DHT22;36284;37.236;-121.934;2022-09-03T20:49:08;35.30;80.40
20200;DHT22;36284;37.236;-121.934;2022-09-03T20:51:58;35.70;79.20
20200;DHT22;36284;37.236;-121.934;2022-09-03T20:54:44;35.90;79.30
20200;DHT22;36284;37.236;-121.934;2022-09-03T20:57:39;36.40;76.10
20200;DHT22;36284;37.236;-121.934;2022-09-03T21:00:14;36.00;77.80
20200;DHT22;36284;37.236;-121.934;2022-09-03T21:11:10;36.90;74.50
20200;DHT22;36284;37.236;-121.934;2022-09-03T21:17:14;35.60;75.50
20200;DHT22;36284;37.236;-121.934;2022-09-03T21:22:42;36.90;74.60